Time;durP1;ratioP1;P1;durP2;ratioP2;P2;SDS_P1;SDS_P2;PMS_P1;PMS_P2;Temp;Humidity;BMP_temperature;BMP_pressure;BME280_temperature;BME280_humidity;BME280_pressure;Samples;Min_cycle;Max_cycle;Signal;HPM_P1;HPM_P2
2019/09/17 00:00:34;;;;;;;6.1;4.7;;;;;;;18.3;86.29492;95339.56;;;;
2019/09/17 00:02:10;;;;;;;6.1;4.7;;;;;;;18.3;86.29492;95339.56;;;;
2019/09/17 00:03:12;;;;;;;6.850001;4.400001;;;;;;;18.29;86.06543;95337.11;;;;
2019/09/17 00:04:13;;;;;;;6.850001;4.400001;;;;;;;18.29;86.06543;95337.11;;;;
2019/09/17 00:05:14;;;;;;;5.8;4.95;;;;;;;18.27;85.96191;95333.84;;;;
2019/09/17 00:06:16;;;;;;;5.8;4.95;;;;;;;18.27;85.96191;95333.84;;;;
2019/09/17 00:07:18;;;;;;;5.8;4.95;;;;;;;18.27;85.96191;95333.84;;;;
2019/09/17 00:08:19;;;;;;;7.499999;4.5;;;;;;;18.23;85.7832;95339.47;;;;
2019/09/17 00:09:20;;;;;;;7.499999;4.5;;;;;;;18.23;85.7832;95339.47;;;;
2019/09/17 00:10:22;;;;;;;5.649999;4.900001;;;;;;;18.2;85.74316;95338.79;;;;
2019/09/17 00:11:24;;;;;;;5.649999;4.900001;;;;;;;18.2;85.74316;95338.79;;;;
2019/09/17 00:12:25;;;;;;;5.649999;4.900001;;;;;;;18.2;85.74316;95338.79;;;;
2019/09/17 00:13:26;;;;;;;5.8;4.05;;;;;;;18.16;85.72559;95333.08;;;;
2019/09/17 00:14:28;;;;;;;5.8;4.05;;;;;;;18.16;85.72559;95333.08;;;;
2019/09/17 00:15:29;;;;;;;5.35;4.75;;;;;;;18.13;85.6875;95326;;;;
2019/09/17 00:16:30;;;;;;;5.35;4.75;;;;;;;18.13;85.6875;95326;;;;
2019/09/17 00:17:32;;;;;;;5.35;4.75;;;;;;;18.13;85.6875;95326;;;;
2019/09/17 00:18:33;;;;;;;8.799999;5.099999;;;;;;;18.09;85.81934;95328.06;;;;
2019/09/17 00:19:35;;;;;;;8.799999;5.099999;;;;;;;18.09;85.81934;95328.06;;;;
2019/09/17 00:20:36;;;;;;;8.799999;5.099999;;;;;;;18.09;85.81934;95328.06;;;;
2019/09/17 00:22:03;;;;;;;5;4.5;;;;;;;18.06;86.05273;95335.06;;;;
2019/09/17 00:23:04;;;;;;;5;4.5;;;;;;;18.06;86.05273;95335.06;;;;
2019/09/17 00:24:06;;;;;;;5.35;4.45;;;;;;;18.02;85.91504;95334.39;;;;
2019/09/17 00:25:07;;;;;;;5.35;4.45;;;;;;;18.02;85.91504;95334.39;;;;
2019/09/17 00:26:09;;;;;;;4.900001;4.3;;;;;;;17.99;85.71387;95329.47;;;;
2019/09/17 00:27:10;;;;;;;4.900001;4.3;;;;;;;17.99;85.71387;95329.47;;;;
2019/09/17 00:28:12;;;;;;;4.900001;4.3;;;;;;;17.99;85.71387;95329.47;;;;
2019/09/17 00:29:14;;;;;;;6.25;5.099999;;;;;;;17.95;85.87891;95326.64;;;;
2019/09/17 00:30:15;;;;;;;6.25;5.099999;;;;;;;17.95;85.87891;95326.64;;;;
2019/09/17 00:31:17;;;;;;;5.05;4.45;;;;;;;17.92;85.73242;95328.58;;;;
2019/09/17 00:32:18;;;;;;;5.05;4.45;;;;;;;17.92;85.73242;95328.58;;;;
2019/09/17 00:33:19;;;;;;;5.05;4.45;;;;;;;17.92;85.73242;95328.58;;;;
2019/09/17 00:34:21;;;;;;;5.5;5;;;;;;;17.87;85.61328;95328.58;;;;
2019/09/17 00:35:22;;;;;;;5.5;5;;;;;;;17.87;85.61328;95328.58;;;;
2019/09/17 00:36:38;;;;;;;7.05;4.6;;;;;;;17.82;85.51953;95329.85;;;;
2019/09/17 00:37:39;;;;;;;7.05;4.6;;;;;;;17.82;85.51953;95329.85;;;;
2019/09/17 00:38:40;;;;;;;7.05;4.6;;;;;;;17.82;85.51953;95329.85;;;;
2019/09/17 00:39:41;;;;;;;5.95;4.85;;;;;;;17.75;85.65625;95336.16;;;;
2019/09/17 00:40:42;;;;;;;5.95;4.85;;;;;;;17.75;85.65625;95336.16;;;;
2019/09/17 00:42:02;;;;;;;5.3;4.8;;;;;;;17.68;85.87109;95327.83;;;;
2019/09/17 00:43:03;;;;;;;5.3;4.8;;;;;;;17.68;85.87109;95327.83;;;;
2019/09/17 00:44:04;;;;;;;5.3;4.8;;;;;;;17.68;85.87109;95327.83;;;;
2019/09/17 00:45:05;;;;;;;5.15;4.649999;;;;;;;17.62;86.23926;95332.64;;;;
2019/09/17 00:46:07;;;;;;;5.15;4.649999;;;;;;;17.62;86.23926;95332.64;;;;
2019/09/17 00:47:08;;;;;;;5.15;4.649999;;;;;;;17.62;86.23926;95332.64;;;;
2019/09/17 00:48:10;;;;;;;5.25;4.699999;;;;;;;17.56;86.56445;95329.65;;;;
2019/09/17 00:49:11;;;;;;;5.25;4.699999;;;;;;;17.56;86.56445;95329.65;;;;
2019/09/17 00:50:12;;;;;;;6.050001;5.3;;;;;;;17.51;87.08398;95331.98;;;;
2019/09/17 00:51:14;;;;;;;6.050001;5.3;;;;;;;17.51;87.08398;95331.98;;;;
2019/09/17 00:52:15;;;;;;;6.050001;5.3;;;;;;;17.51;87.08398;95331.98;;;;
2019/09/17 00:53:16;;;;;;;6.85;5;;;;;;;17.46;87.42188;95321.88;;;;
2019/09/17 00:54:17;;;;;;;6.85;5;;;;;;;17.46;87.42188;95321.88;;;;
2019/09/17 00:55:18;;;;;;;6.4;4.649999;;;;;;;17.43;88.04199;95323.38;;;;
2019/09/17 00:56:21;;;;;;;6.4;4.649999;;;;;;;17.43;88.04199;95323.38;;;;
2019/09/17 00:57:22;;;;;;;6.4;4.649999;;;;;;;17.43;88.04199;95323.38;;;;
2019/09/17 00:58:23;;;;;;;5.6;5;;;;;;;17.4;88.6875;95322.99;;;;
2019/09/17 00:59:24;;;;;;;5.6;5;;;;;;;17.4;88.6875;95322.99;;;;
2019/09/17 01:00:25;;;;;;;5.85;4.7;;;;;;;17.39;89.11719;95317.8;;;;
2019/09/17 01:01:27;;;;;;;5.85;4.7;;;;;;;17.39;89.11719;95317.8;;;;
2019/09/17 01:02:29;;;;;;;5.85;4.7;;;;;;;17.39;89.11719;95317.8;;;;
2019/09/17 01:03:30;;;;;;;6.849999;4.899999;;;;;;;17.37;89.23242;95318.08;;;;
2019/09/17 01:04:32;;;;;;;6.849999;4.899999;;;;;;;17.37;89.23242;95318.08;;;;
2019/09/17 01:05:33;;;;;;;6.849999;4.899999;;;;;;;17.37;89.23242;95318.08;;;;
2019/09/17 01:06:34;;;;;;;5.900001;5;;;;;;;17.36;89.62012;95326.14;;;;
2019/09/17 01:07:36;;;;;;;5.900001;5;;;;;;;17.36;89.62012;95326.14;;;;
2019/09/17 01:08:37;;;;;;;6.45;4.95;;;;;;;17.33;89.60156;95323.95;;;;
2019/09/17 01:09:38;;;;;;;6.45;4.95;;;;;;;17.33;89.60156;95323.95;;;;
2019/09/17 01:10:39;;;;;;;6.45;4.95;;;;;;;17.33;89.60156;95323.95;;;;
2019/09/17 01:12:49;;;;;;;5.8;5.199999;;;;;;;17.28;89.7666;95326.15;;;;
2019/09/17 01:13:50;;;;;;;7.550001;4.849999;;;;;;;17.22;89.87207;95331.34;;;;
2019/09/17 01:14:51;;;;;;;7.550001;4.849999;;;;;;;17.22;89.87207;95331.34;;;;
2019/09/17 01:15:52;;;;;;;7.550001;4.849999;;;;;;;17.22;89.87207;95331.34;;;;
2019/09/17 01:16:54;;;;;;;5.55;5.05;;;;;;;17.16;90.23926;95330.13;;;;
2019/09/17 01:17:56;;;;;;;5.55;5.05;;;;;;;17.16;90.23926;95330.13;;;;
2019/09/17 01:18:57;;;;;;;5.849999;5;;;;;;;17.11;90.50879;95326.04;;;;
2019/09/17 01:19:58;;;;;;;5.849999;5;;;;;;;17.11;90.50879;95326.04;;;;
2019/09/17 01:20:59;;;;;;;5.849999;5;;;;;;;17.11;90.50879;95326.04;;;;
2019/09/17 01:22:01;;;;;;;5.45;4.8;;;;;;;17.06;90.88867;95323.33;;;;
2019/09/17 01:23:02;;;;;;;5.45;4.8;;;;;;;17.06;90.88867;95323.33;;;;
2019/09/17 01:24:05;;;;;;;5.45;4.8;;;;;;;17.06;90.88867;95323.33;;;;
2019/09/17 01:25:07;;;;;;;5.7;5.1;;;;;;;17.02;91.19434;95328.26;;;;
2019/09/17 01:26:08;;;;;;;5.7;5.1;;;;;;;17.02;91.19434;95328.26;;;;
2019/09/17 01:27:10;;;;;;;7.899999;5.400001;;;;;;;16.95;91.50293;95325.37;;;;
2019/09/17 01:28:11;;;;;;;7.899999;5.400001;;;;;;;16.95;91.50293;95325.37;;;;
2019/09/17 01:29:12;;;;;;;7.899999;5.400001;;;;;;;16.95;91.50293;95325.37;;;;
2019/09/17 01:30:13;;;;;;;5.85;5.25;;;;;;;16.89;91.77148;95327.29;;;;
2019/09/17 01:31:15;;;;;;;5.85;5.25;;;;;;;16.89;91.77148;95327.29;;;;
2019/09/17 01:32:16;;;;;;;5.85;5;;;;;;;16.83;92.21387;95332.08;;;;
2019/09/17 01:33:17;;;;;;;5.85;5;;;;;;;16.83;92.21387;95332.08;;;;
2019/09/17 01:34:19;;;;;;;5.85;5;;;;;;;16.83;92.21387;95332.08;;;;
2019/09/17 01:35:20;;;;;;;5.900001;5.2;;;;;;;16.79;92.57129;95324.7;;;;
2019/09/17 01:36:21;;;;;;;5.900001;5.2;;;;;;;16.79;92.57129;95324.7;;;;
2019/09/17 01:37:23;;;;;;;5.900001;5.2;;;;;;;16.79;92.57129;95324.7;;;;
2019/09/17 01:38:24;;;;;;;6.4;5.15;;;;;;;16.75;92.99512;95320.92;;;;
2019/09/17 01:40:01;;;;;;;6.4;5.15;;;;;;;16.75;92.99512;95320.92;;;;
2019/09/17 01:41:03;;;;;;;7.449999;5.199999;;;;;;;16.71;93.31055;95322.96;;;;
2019/09/17 01:42:12;;;;;;;7.449999;5.199999;;;;;;;16.71;93.31055;95322.96;;;;
2019/09/17 01:43:13;;;;;;;5.55;5.05;;;;;;;16.69;93.65234;95323.77;;;;
2019/09/17 01:44:14;;;;;;;5.55;5.05;;;;;;;16.69;93.65234;95323.77;;;;
2019/09/17 01:45:16;;;;;;;5.55;5.05;;;;;;;16.69;93.65234;95323.77;;;;
2019/09/17 01:46:18;;;;;;;5.550001;4.95;;;;;;;16.66;93.95703;95324.7;;;;
2019/09/17 01:47:19;;;;;;;5.550001;4.95;;;;;;;16.66;93.95703;95324.7;;;;
2019/09/17 01:48:20;;;;;;;6.449999;5;;;;;;;16.63;94.3623;95318.86;;;;
2019/09/17 01:49:22;;;;;;;6.449999;5;;;;;;;16.63;94.3623;95318.86;;;;
2019/09/17 01:50:23;;;;;;;6.449999;5;;;;;;;16.63;94.3623;95318.86;;;;
2019/09/17 01:51:24;;;;;;;6.500001;5.1;;;;;;;16.62;94.62793;95324.59;;;;
2019/09/17 01:52:26;;;;;;;6.500001;5.1;;;;;;;16.62;94.62793;95324.59;;;;
2019/09/17 01:53:27;;;;;;;5.5;4.95;;;;;;;16.6;95.03418;95325.81;;;;
2019/09/17 01:54:28;;;;;;;5.5;4.95;;;;;;;16.6;95.03418;95325.81;;;;
2019/09/17 01:55:29;;;;;;;5.5;4.95;;;;;;;16.6;95.03418;95325.81;;;;
2019/09/17 01:56:30;;;;;;;6.599999;5.3;;;;;;;16.58;95.28027;95324.31;;;;
2019/09/17 01:57:31;;;;;;;6.599999;5.3;;;;;;;16.58;95.28027;95324.31;;;;
2019/09/17 01:58:33;;;;;;;6.599999;5.3;;;;;;;16.58;95.28027;95324.31;;;;
2019/09/17 01:59:34;;;;;;;6.25;5.45;;;;;;;16.57;95.58887;95330.05;;;;
2019/09/17 02:00:35;;;;;;;6.25;5.45;;;;;;;16.57;95.58887;95330.05;;;;
2019/09/17 02:01:50;;;;;;;5.7;5.2;;;;;;;16.55;95.81055;95320.34;;;;
2019/09/17 02:02:52;;;;;;;5.7;5.2;;;;;;;16.55;95.81055;95320.34;;;;
2019/09/17 02:03:53;;;;;;;5.7;5.2;;;;;;;16.55;95.81055;95320.34;;;;
2019/09/17 02:04:54;;;;;;;6;5.349999;;;;;;;16.55;96.16699;95329.5;;;;
2019/09/17 02:05:56;;;;;;;6;5.349999;;;;;;;16.55;96.16699;95329.5;;;;
2019/09/17 02:06:57;;;;;;;6.1;5.55;;;;;;;16.55;96.40332;95325.78;;;;
2019/09/17 02:07:58;;;;;;;6.1;5.55;;;;;;;16.55;96.40332;95325.78;;;;
2019/09/17 02:09:00;;;;;;;6.1;5.55;;;;;;;16.55;96.40332;95325.78;;;;
2019/09/17 02:10:02;;;;;;;6;5.349999;;;;;;;16.55;96.72949;95326.61;;;;
2019/09/17 02:11:04;;;;;;;6;5.349999;;;;;;;16.55;96.72949;95326.61;;;;
2019/09/17 02:12:07;;;;;;;5.750001;5.1;;;;;;;16.57;96.95703;95321.3;;;;
2019/09/17 02:13:08;;;;;;;5.750001;5.1;;;;;;;16.57;96.95703;95321.3;;;;
2019/09/17 02:14:09;;;;;;;5.750001;5.1;;;;;;;16.57;96.95703;95321.3;;;;
2019/09/17 02:15:11;;;;;;;6.199998;5.349999;;;;;;;16.58;97.21973;95320.23;;;;
2019/09/17 02:16:14;;;;;;;6.199998;5.349999;;;;;;;16.58;97.21973;95320.23;;;;
2019/09/17 02:17:15;;;;;;;6.05;5.15;;;;;;;16.61;97.32129;95319.67;;;;
2019/09/17 02:18:16;;;;;;;6.05;5.15;;;;;;;16.61;97.32129;95319.67;;;;
2019/09/17 02:19:18;;;;;;;6.05;5.15;;;;;;;16.61;97.32129;95319.67;;;;
2019/09/17 02:20:19;;;;;;;6.100001;5.4;;;;;;;16.64;97.50195;95323.63;;;;
2019/09/17 02:21:21;;;;;;;6.100001;5.4;;;;;;;16.64;97.50195;95323.63;;;;
2019/09/17 02:23:39;;;;;;;6.400001;5.35;;;;;;;16.67;97.64844;95317.64;;;;
2019/09/17 02:24:40;;;;;;;6.400001;5.35;;;;;;;16.67;97.64844;95317.64;;;;
2019/09/17 02:25:41;;;;;;;6.05;5;;;;;;;16.69;97.80469;95316.8;;;;
2019/09/17 02:26:43;;;;;;;6.05;5;;;;;;;16.69;97.80469;95316.8;;;;
2019/09/17 02:27:44;;;;;;;6.05;5;;;;;;;16.69;97.80469;95316.8;;;;
2019/09/17 02:28:45;;;;;;;5.75;5.149999;;;;;;;16.73;97.9707;95316.27;;;;
2019/09/17 02:29:46;;;;;;;5.75;5.149999;;;;;;;16.73;97.9707;95316.27;;;;
2019/09/17 02:30:48;;;;;;;7.05;5.299999;;;;;;;16.75;98.22461;95315.45;;;;
2019/09/17 02:32:00;;;;;;;7.05;5.299999;;;;;;;16.75;98.22461;95315.45;;;;
2019/09/17 02:33:01;;;;;;;7.05;5.299999;;;;;;;16.75;98.22461;95315.45;;;;
2019/09/17 02:34:03;;;;;;;6.749999;5.3;;;;;;;16.76;98.01367;95323.36;;;;
2019/09/17 02:35:04;;;;;;;6.749999;5.3;;;;;;;16.76;98.01367;95323.36;;;;
2019/09/17 02:36:06;;;;;;;6.1;5.5;;;;;;;16.75;98.00977;95322.13;;;;
2019/09/17 02:37:07;;;;;;;6.1;5.5;;;;;;;16.75;98.00977;95322.13;;;;
2019/09/17 02:38:09;;;;;;;6.1;5.5;;;;;;;16.75;98.00977;95322.13;;;;
2019/09/17 02:39:10;;;;;;;6.199999;5.6;;;;;;;16.76;97.94922;95313.81;;;;
2019/09/17 02:40:11;;;;;;;6.199999;5.6;;;;;;;16.76;97.94922;95313.81;;;;
2019/09/17 02:41:14;;;;;;;7.45;5.6;;;;;;;16.75;98.08496;95316.25;;;;
2019/09/17 02:42:15;;;;;;;7.45;5.6;;;;;;;16.75;98.08496;95316.25;;;;
2019/09/17 02:43:16;;;;;;;7.45;5.6;;;;;;;16.75;98.08496;95316.25;;;;
2019/09/17 02:44:17;;;;;;;7.849999;5.699999;;;;;;;16.74;98.03125;95319.13;;;;
2019/09/17 02:45:19;;;;;;;7.849999;5.699999;;;;;;;16.74;98.03125;95319.13;;;;
2019/09/17 02:46:20;;;;;;;6.550001;5.699999;;;;;;;16.73;98.15625;95319.8;;;;
2019/09/17 02:47:22;;;;;;;6.550001;5.699999;;;;;;;16.73;98.15625;95319.8;;;;
2019/09/17 02:48:23;;;;;;;6.550001;5.699999;;;;;;;16.73;98.15625;95319.8;;;;
2019/09/17 02:49:25;;;;;;;6.550001;5.699999;;;;;;;16.73;98.15625;95319.8;;;;
2019/09/17 02:50:26;;;;;;;6.550001;5.699999;;;;;;;16.73;98.15625;95319.8;;;;
2019/09/17 02:51:27;;;;;;;6.550001;5.699999;;;;;;;16.73;98.15625;95319.8;;;;
2019/09/17 02:52:29;;;;;;;6.550001;5.699999;;;;;;;16.73;98.15625;95319.8;;;;
2019/09/17 02:53:30;;;;;;;6.550001;5.699999;;;;;;;16.73;98.15625;95319.8;;;;
2019/09/17 02:54:31;;;;;;;6.550001;5.699999;;;;;;;16.73;98.15625;95319.8;;;;
2019/09/17 02:55:32;;;;;;;6.550001;5.699999;;;;;;;16.73;98.15625;95319.8;;;;
2019/09/17 02:56:36;;;;;;;6.550001;5.699999;;;;;;;16.73;98.15625;95319.8;;;;
2019/09/17 02:57:37;;;;;;;6.450001;5.799999;;;;;;;16.31;97.16016;95307.78;;;;
2019/09/17 02:58:38;;;;;;;6.450001;5.799999;;;;;;;16.31;97.16016;95307.78;;;;
2019/09/17 02:59:39;;;;;;;7.3;5.900001;;;;;;;16.28;98.21973;95313.75;;;;
2019/09/17 03:00:40;;;;;;;7.3;5.900001;;;;;;;16.28;98.21973;95313.75;;;;
2019/09/17 03:01:42;;;;;;;7.3;5.900001;;;;;;;16.28;98.21973;95313.75;;;;
2019/09/17 03:02:43;;;;;;;6.35;5.75;;;;;;;16.29;98.66113;95319.07;;;;
2019/09/17 03:03:44;;;;;;;6.35;5.75;;;;;;;16.29;98.66113;95319.07;;;;
2019/09/17 03:04:45;;;;;;;6.35;5.75;;;;;;;16.29;98.66113;95319.07;;;;
2019/09/17 03:05:46;;;;;;;6.749999;6.100001;;;;;;;16.3;99.0293;95317.17;;;;
2019/09/17 03:06:47;;;;;;;6.749999;6.100001;;;;;;;16.3;99.0293;95317.17;;;;
2019/09/17 03:07:49;;;;;;;6.749999;6.100001;;;;;;;16.3;99.0293;95317.17;;;;
2019/09/17 03:08:50;;;;;;;6.749999;6.100001;;;;;;;16.3;99.0293;95317.17;;;;
2019/09/17 03:09:51;;;;;;;6.749999;6.100001;;;;;;;16.3;99.0293;95317.17;;;;
2019/09/17 03:10:52;;;;;;;6.749999;6.100001;;;;;;;16.3;99.0293;95317.17;;;;
2019/09/17 03:12:56;;;;;;;6.749999;6.100001;;;;;;;16.3;99.0293;95317.17;;;;
2019/09/17 03:13:58;;;;;;;6.749999;6.100001;;;;;;;16.3;99.0293;95317.17;;;;
2019/09/17 03:14:59;;;;;;;6.749999;6.100001;;;;;;;16.3;99.0293;95317.17;;;;
2019/09/17 03:16:00;;;;;;;8.650002;6.7;;;;;;;15.92;98.0332;95331.51;;;;
2019/09/17 03:17:01;;;;;;;8.650002;6.7;;;;;;;15.92;98.0332;95331.51;;;;
2019/09/17 03:18:02;;;;;;;8.650002;6.7;;;;;;;15.92;98.0332;95331.51;;;;
2019/09/17 03:19:04;;;;;;;7.6;6.6;;;;;;;15.91;99.26367;95335.46;;;;
2019/09/17 03:20:05;;;;;;;7.6;6.6;;;;;;;15.91;99.26367;95335.46;;;;
2019/09/17 03:21:07;;;;;;;7.6;6.6;;;;;;;15.91;99.26367;95335.46;;;;
2019/09/17 03:22:28;;;;;;;7.6;6.6;;;;;;;15.91;99.26367;95335.46;;;;
2019/09/17 03:23:29;;;;;;;7.6;6.6;;;;;;;15.91;99.26367;95335.46;;;;
2019/09/17 03:24:30;;;;;;;7.6;6.6;;;;;;;15.91;99.26367;95335.46;;;;
2019/09/17 03:25:32;;;;;;;7.6;6.6;;;;;;;15.91;99.26367;95335.46;;;;
2019/09/17 03:26:33;;;;;;;7.6;6.6;;;;;;;15.91;99.26367;95335.46;;;;
2019/09/17 03:27:34;;;;;;;7.6;6.6;;;;;;;15.91;99.26367;95335.46;;;;
2019/09/17 03:28:35;;;;;;;7.6;6.6;;;;;;;15.91;99.26367;95335.46;;;;
2019/09/17 03:29:36;;;;;;;7.5;6.8;;;;;;;15.61;98.43555;95337.53;;;;
2019/09/17 03:30:38;;;;;;;7.5;6.8;;;;;;;15.61;98.43555;95337.53;;;;
2019/09/17 03:31:59;;;;;;;7.2;6.55;;;;;;;15.59;99.77441;95344.19;;;;
2019/09/17 03:33:00;;;;;;;7.2;6.55;;;;;;;15.59;99.77441;95344.19;;;;
2019/09/17 03:34:01;;;;;;;7.2;6.55;;;;;;;15.59;99.77441;95344.19;;;;
2019/09/17 03:35:03;;;;;;;7.2;6.55;;;;;;;15.59;99.77441;95344.19;;;;
2019/09/17 03:36:05;;;;;;;7.2;6.55;;;;;;;15.59;99.77441;95344.19;;;;
2019/09/17 03:37:06;;;;;;;7.2;6.55;;;;;;;15.59;99.77441;95344.19;;;;
2019/09/17 03:38:10;;;;;;;7.2;6.55;;;;;;;15.59;99.77441;95344.19;;;;
2019/09/17 03:39:11;;;;;;;7.2;6.55;;;;;;;15.59;99.77441;95344.19;;;;
2019/09/17 03:40:13;;;;;;;7.2;6.55;;;;;;;15.59;99.77441;95344.19;;;;
2019/09/17 03:41:15;;;;;;;7.2;6.55;;;;;;;15.59;99.77441;95344.19;;;;
2019/09/17 03:42:16;;;;;;;7.6;6.9;;;;;;;15.31;99.06641;95346.47;;;;
2019/09/17 03:43:17;;;;;;;7.6;6.9;;;;;;;15.31;99.06641;95346.47;;;;
2019/09/17 03:44:19;;;;;;;7.6;6.9;;;;;;;15.31;99.06641;95346.47;;;;
2019/09/17 03:45:20;;;;;;;8.600001;7.45;;;;;;;15.3;100;95352.03;;;;
2019/09/17 03:46:30;;;;;;;8.600001;7.45;;;;;;;15.3;100;95352.03;;;;
2019/09/17 03:47:31;;;;;;;8.600001;7.45;;;;;;;15.3;100;95352.03;;;;
2019/09/17 03:48:32;;;;;;;8.600001;7.45;;;;;;;15.3;100;95352.03;;;;
2019/09/17 03:49:33;;;;;;;8.600001;7.45;;;;;;;15.3;100;95352.03;;;;
2019/09/17 03:50:34;;;;;;;8.600001;7.45;;;;;;;15.3;100;95352.03;;;;
2019/09/17 03:51:35;;;;;;;8.600001;7.45;;;;;;;15.3;100;95352.03;;;;
2019/09/17 03:52:37;;;;;;;8.600001;7.45;;;;;;;15.3;100;95352.03;;;;
2019/09/17 03:53:38;;;;;;;8.600001;7.45;;;;;;;15.3;100;95352.03;;;;
2019/09/17 03:54:39;;;;;;;8.600001;7.45;;;;;;;15.3;100;95352.03;;;;
2019/09/17 03:55:40;;;;;;;8.299999;7.1;;;;;;;15;99.65137;95332.81;;;;
2019/09/17 03:56:42;;;;;;;8.299999;7.1;;;;;;;15;99.65137;95332.81;;;;
2019/09/17 03:57:43;;;;;;;8.299999;7.1;;;;;;;15;99.65137;95332.81;;;;
2019/09/17 03:58:44;;;;;;;8.349999;7.55;;;;;;;14.98;100;95329.94;;;;
2019/09/17 03:59:45;;;;;;;8.349999;7.55;;;;;;;14.98;100;95329.94;;;;
2019/09/17 04:00:47;;;;;;;8.349999;7.55;;;;;;;14.98;100;95329.94;;;;
2019/09/17 04:01:48;;;;;;;8.349999;7.55;;;;;;;14.98;100;95329.94;;;;
2019/09/17 04:02:49;;;;;;;8.349999;7.55;;;;;;;14.98;100;95329.94;;;;
2019/09/17 04:03:50;;;;;;;8.349999;7.55;;;;;;;14.98;100;95329.94;;;;
2019/09/17 04:04:51;;;;;;;8.349999;7.55;;;;;;;14.98;100;95329.94;;;;
2019/09/17 04:05:53;;;;;;;8.349999;7.55;;;;;;;14.98;100;95329.94;;;;
2019/09/17 04:06:54;;;;;;;8.349999;7.55;;;;;;;14.98;100;95329.94;;;;
2019/09/17 04:07:56;;;;;;;8.349999;7.55;;;;;;;14.98;100;95329.94;;;;
2019/09/17 04:08:57;;;;;;;8.650002;7.750001;;;;;;;14.8;100;95336.74;;;;
2019/09/17 04:09:58;;;;;;;8.650002;7.750001;;;;;;;14.8;100;95336.74;;;;
2019/09/17 04:10:59;;;;;;;8.650002;7.750001;;;;;;;14.8;100;95336.74;;;;
2019/09/17 04:12:00;;;;;;;8.35;7.649999;;;;;;;14.83;100;95341.64;;;;
2019/09/17 04:13:02;;;;;;;8.35;7.649999;;;;;;;14.83;100;95341.64;;;;
2019/09/17 04:14:03;;;;;;;8.35;7.649999;;;;;;;14.83;100;95341.64;;;;
2019/09/17 04:15:05;;;;;;;8.35;7.649999;;;;;;;14.83;100;95341.64;;;;
2019/09/17 04:16:07;;;;;;;8.35;7.649999;;;;;;;14.83;100;95341.64;;;;
2019/09/17 04:17:31;;;;;;;8.35;7.649999;;;;;;;14.83;100;95341.64;;;;
2019/09/17 04:18:32;;;;;;;8.35;7.649999;;;;;;;14.83;100;95341.64;;;;
2019/09/17 04:19:34;;;;;;;8.35;7.649999;;;;;;;14.83;100;95341.64;;;;
2019/09/17 04:20:35;;;;;;;8.35;7.649999;;;;;;;14.83;100;95341.64;;;;
2019/09/17 04:21:36;;;;;;;8.35;7.649999;;;;;;;14.83;100;95341.64;;;;
2019/09/17 04:22:37;;;;;;;9;7.9;;;;;;;14.79;100;95348.71;;;;
2019/09/17 04:23:39;;;;;;;9;7.9;;;;;;;14.79;100;95348.71;;;;
2019/09/17 04:24:40;;;;;;;10.1;8.1;;;;;;;14.85;100;95344.39;;;;
2019/09/17 04:25:41;;;;;;;10.1;8.1;;;;;;;14.85;100;95344.39;;;;
2019/09/17 04:26:43;;;;;;;10.1;8.1;;;;;;;14.85;100;95344.39;;;;
2019/09/17 04:27:44;;;;;;;10.1;8.1;;;;;;;14.85;100;95344.39;;;;
2019/09/17 04:28:45;;;;;;;10.1;8.1;;;;;;;14.85;100;95344.39;;;;
2019/09/17 04:29:46;;;;;;;10.1;8.1;;;;;;;14.85;100;95344.39;;;;
2019/09/17 04:30:48;;;;;;;10.1;8.1;;;;;;;14.85;100;95344.39;;;;
2019/09/17 04:31:51;;;;;;;10.1;8.1;;;;;;;14.85;100;95344.39;;;;
2019/09/17 04:32:53;;;;;;;10.1;8.1;;;;;;;14.85;100;95344.39;;;;
2019/09/17 04:33:54;;;;;;;10.1;8.1;;;;;;;14.85;100;95344.39;;;;
2019/09/17 04:34:55;;;;;;;8.5;7.700001;;;;;;;14.92;100;95331.8;;;;
2019/09/17 04:35:56;;;;;;;8.5;7.700001;;;;;;;14.92;100;95331.8;;;;
2019/09/17 04:36:57;;;;;;;8.5;7.700001;;;;;;;14.92;100;95331.8;;;;
2019/09/17 04:37:58;;;;;;;8.5;7.700001;;;;;;;14.92;100;95331.8;;;;
2019/09/17 04:39:00;;;;;;;8.5;7.700001;;;;;;;14.92;100;95331.8;;;;
2019/09/17 04:40:01;;;;;;;8.5;7.700001;;;;;;;14.92;100;95331.8;;;;
2019/09/17 04:41:03;;;;;;;8.5;7.700001;;;;;;;14.92;100;95331.8;;;;
2019/09/17 04:42:04;;;;;;;8.5;7.700001;;;;;;;14.92;100;95331.8;;;;
2019/09/17 04:43:07;;;;;;;8.5;7.700001;;;;;;;14.92;100;95331.8;;;;
2019/09/17 04:44:08;;;;;;;8.5;7.700001;;;;;;;14.92;100;95331.8;;;;
2019/09/17 04:45:09;;;;;;;8.5;7.700001;;;;;;;14.92;100;95331.8;;;;
2019/09/17 04:46:11;;;;;;;8.35;7.55;;;;;;;15.02;100;95339.59;;;;
2019/09/17 04:47:12;;;;;;;8.35;7.55;;;;;;;15.02;100;95339.59;;;;
2019/09/17 04:48:14;;;;;;;8.35;7.55;;;;;;;15.02;100;95339.59;;;;
2019/09/17 04:49:15;;;;;;;8.35;7.55;;;;;;;15.02;100;95339.59;;;;
2019/09/17 04:50:16;;;;;;;8.35;7.55;;;;;;;15.02;100;95339.59;;;;
2019/09/17 04:51:18;;;;;;;8.35;7.55;;;;;;;15.02;100;95339.59;;;;
2019/09/17 04:52:33;;;;;;;8.35;7.55;;;;;;;15.02;100;95339.59;;;;
2019/09/17 04:53:44;;;;;;;8.35;7.55;;;;;;;15.02;100;95339.59;;;;
2019/09/17 04:54:45;;;;;;;8.35;7.55;;;;;;;15.02;100;95339.59;;;;
2019/09/17 04:55:46;;;;;;;8.35;7.55;;;;;;;15.02;100;95339.59;;;;
2019/09/17 04:56:47;;;;;;;8.199999;7.4;;;;;;;15.09;100;95346.6;;;;
2019/09/17 04:57:49;;;;;;;8.199999;7.4;;;;;;;15.09;100;95346.6;;;;
2019/09/17 04:58:50;;;;;;;8.199999;7.4;;;;;;;15.09;100;95346.6;;;;
2019/09/17 04:59:51;;;;;;;8.199999;7.4;;;;;;;15.09;100;95346.6;;;;
2019/09/17 05:00:52;;;;;;;8.199999;7.4;;;;;;;15.09;100;95346.6;;;;
2019/09/17 05:01:54;;;;;;;8.199999;7.4;;;;;;;15.09;100;95346.6;;;;
2019/09/17 05:02:55;;;;;;;8.199999;7.4;;;;;;;15.09;100;95346.6;;;;
2019/09/17 05:03:56;;;;;;;8.199999;7.4;;;;;;;15.09;100;95346.6;;;;
2019/09/17 05:04:57;;;;;;;8.199999;7.4;;;;;;;15.09;100;95346.6;;;;
2019/09/17 05:05:58;;;;;;;8.199999;7.4;;;;;;;15.09;100;95346.6;;;;
2019/09/17 05:06:59;;;;;;;8.350001;7.4;;;;;;;15.22;100;95348.85;;;;
2019/09/17 05:08:01;;;;;;;8.350001;7.4;;;;;;;15.22;100;95348.85;;;;
2019/09/17 05:09:02;;;;;;;8.350001;7.4;;;;;;;15.22;100;95348.85;;;;
2019/09/17 05:10:06;;;;;;;8.350001;7.4;;;;;;;15.22;100;95348.85;;;;
2019/09/17 05:11:09;;;;;;;8.350001;7.4;;;;;;;15.22;100;95348.85;;;;
2019/09/17 05:12:11;;;;;;;8.350001;7.4;;;;;;;15.22;100;95348.85;;;;
2019/09/17 05:13:13;;;;;;;8.350001;7.4;;;;;;;15.22;100;95348.85;;;;
2019/09/17 05:14:14;;;;;;;8.350001;7.4;;;;;;;15.22;100;95348.85;;;;
2019/09/17 05:15:15;;;;;;;8.350001;7.4;;;;;;;15.22;100;95348.85;;;;
2019/09/17 05:16:18;;;;;;;8.350001;7.4;;;;;;;15.22;100;95348.85;;;;
2019/09/17 05:17:19;;;;;;;8.7;7.400001;;;;;;;15.29;100;95368.87;;;;
2019/09/17 05:18:20;;;;;;;8.7;7.400001;;;;;;;15.29;100;95368.87;;;;
2019/09/17 05:19:22;;;;;;;8.7;7.400001;;;;;;;15.29;100;95368.87;;;;
2019/09/17 05:20:23;;;;;;;8.7;7.400001;;;;;;;15.29;100;95368.87;;;;
2019/09/17 05:21:24;;;;;;;8.7;7.400001;;;;;;;15.29;100;95368.87;;;;
2019/09/17 05:22:29;;;;;;;8.7;7.400001;;;;;;;15.29;100;95368.87;;;;
2019/09/17 05:23:30;;;;;;;8.7;7.400001;;;;;;;15.29;100;95368.87;;;;
2019/09/17 05:24:31;;;;;;;8.7;7.400001;;;;;;;15.29;100;95368.87;;;;
2019/09/17 05:25:32;;;;;;;8.7;7.400001;;;;;;;15.29;100;95368.87;;;;
2019/09/17 05:26:33;;;;;;;8.7;7.400001;;;;;;;15.29;100;95368.87;;;;
2019/09/17 05:27:34;;;;;;;8.7;7.400001;;;;;;;15.29;100;95368.87;;;;
2019/09/17 05:28:36;;;;;;;8.1;7.299999;;;;;;;15.45;100;95380.31;;;;
2019/09/17 05:29:37;;;;;;;8.1;7.299999;;;;;;;15.45;100;95380.31;;;;
2019/09/17 05:30:38;;;;;;;8.1;7.299999;;;;;;;15.45;100;95380.31;;;;
2019/09/17 05:31:49;;;;;;;8.1;7.299999;;;;;;;15.45;100;95380.31;;;;
2019/09/17 05:32:50;;;;;;;8.1;7.299999;;;;;;;15.45;100;95380.31;;;;
2019/09/17 05:33:51;;;;;;;8.1;7.299999;;;;;;;15.45;100;95380.31;;;;
2019/09/17 05:34:53;;;;;;;8.1;7.299999;;;;;;;15.45;100;95380.31;;;;
2019/09/17 05:35:54;;;;;;;8.1;7.299999;;;;;;;15.45;100;95380.31;;;;
2019/09/17 05:36:55;;;;;;;8.1;7.299999;;;;;;;15.45;100;95380.31;;;;
2019/09/17 05:37:57;;;;;;;8.1;7.299999;;;;;;;15.45;100;95380.31;;;;
2019/09/17 05:38:58;;;;;;;10.35;8;;;;;;;15.61;99.85352;95398.77;;;;
2019/09/17 05:39:59;;;;;;;10.35;8;;;;;;;15.61;99.85352;95398.77;;;;
2019/09/17 05:41:00;;;;;;;10.35;8;;;;;;;15.61;99.85352;95398.77;;;;
2019/09/17 05:42:06;;;;;;;10.35;8;;;;;;;15.61;99.85352;95398.77;;;;
2019/09/17 05:43:07;;;;;;;10.35;8;;;;;;;15.61;99.85352;95398.77;;;;
2019/09/17 05:44:08;;;;;;;10.35;8;;;;;;;15.61;99.85352;95398.77;;;;
2019/09/17 05:45:10;;;;;;;10.35;8;;;;;;;15.61;99.85352;95398.77;;;;
2019/09/17 05:46:11;;;;;;;10.35;8;;;;;;;15.61;99.85352;95398.77;;;;
2019/09/17 05:47:13;;;;;;;10.35;8;;;;;;;15.61;99.85352;95398.77;;;;
2019/09/17 05:48:14;;;;;;;10.35;8;;;;;;;15.61;99.85352;95398.77;;;;
2019/09/17 05:49:15;;;;;;;11;8;;;;;;;15.91;99.37305;95384.88;;;;
2019/09/17 05:50:16;;;;;;;11;8;;;;;;;15.91;99.37305;95384.88;;;;
2019/09/17 05:51:26;;;;;;;11;8;;;;;;;15.91;99.37305;95384.88;;;;
2019/09/17 05:52:27;;;;;;;11;8;;;;;;;15.91;99.37305;95384.88;;;;
2019/09/17 05:53:28;;;;;;;11;8;;;;;;;15.91;99.37305;95384.88;;;;
2019/09/17 05:54:29;;;;;;;11;8;;;;;;;15.91;99.37305;95384.88;;;;
2019/09/17 05:55:30;;;;;;;11;8;;;;;;;15.91;99.37305;95384.88;;;;